Time;durP1;ratioP1;P1;durP2;ratioP2;P2;SDS_P1;SDS_P2;PMS_P1;PMS_P2;Temp;Humidity;BMP_temperature;BMP_pressure;BME280_temperature;BME280_humidity;BME280_pressure;Samples;Min_cycle;Max_cycle;Signal;HPM_P1;HPM_P2
2023/10/21 00:00:38;;;;;;;7.83;6.00;;;12.70;99.90;;;;;;5071933;28;20185;-73
2023/10/21 00:03:04;;;;;;;6.37;5.77;;;12.70;99.90;;;;;;5072535;28;20257;-74
2023/10/21 00:05:30;;;;;;;7.00;6.27;;;12.70;99.90;;;;;;5071966;28;20316;-73
2023/10/21 00:07:55;;;;;;;6.97;5.70;;;12.70;99.90;;;;;;5072321;28;20174;-74
2023/10/21 00:10:21;;;;;;;7.87;6.20;;;12.70;99.90;;;;;;5071826;28;20739;-74
2023/10/21 00:12:46;;;;;;;6.57;5.87;;;12.70;99.90;;;;;;5072121;28;20699;-74
2023/10/21 00:15:12;;;;;;;10.13;5.93;;;12.70;99.90;;;;;;5072126;28;20170;-74
2023/10/21 00:17:38;;;;;;;7.70;6.07;;;12.70;99.90;;;;;;5071913;28;20643;-74
2023/10/21 00:20:08;;;;;;;6.73;5.83;;;12.70;99.90;;;;;;5071546;28;20264;-74
2023/10/21 00:22:35;;;;;;;8.57;5.87;;;12.70;99.90;;;;;;5071837;28;20194;-74
2023/10/21 00:25:01;;;;;;;6.93;5.87;;;12.70;99.90;;;;;;5071906;28;20201;-74
2023/10/21 00:27:27;;;;;;;7.87;5.90;;;12.80;99.90;;;;;;5071537;28;20202;-74
2023/10/21 00:29:53;;;;;;;5.87;5.40;;;12.70;99.90;;;;;;5071012;28;20206;-73
2023/10/21 00:32:19;;;;;;;8.40;6.30;;;12.70;99.90;;;;;;5071617;28;20556;-73
2023/10/21 00:34:44;;;;;;;9.87;6.20;;;12.80;99.90;;;;;;5071593;28;20189;-73
2023/10/21 00:37:10;;;;;;;6.73;6.10;;;12.80;99.90;;;;;;5071789;28;20261;-73
2023/10/21 00:39:37;;;;;;;6.90;6.20;;;12.90;99.90;;;;;;5071374;28;20174;-74
2023/10/21 00:42:06;;;;;;;6.30;5.80;;;12.90;99.90;;;;;;5071509;28;20267;-74
2023/10/21 00:44:32;;;;;;;6.33;5.73;;;12.90;99.90;;;;;;5071367;28;20261;-74
2023/10/21 00:47:01;;;;;;;5.73;5.23;;;13.00;99.90;;;;;;5071687;28;20232;-74
2023/10/21 00:49:30;;;;;;;6.30;5.77;;;13.00;99.90;;;;;;5071520;28;20200;-74
2023/10/21 00:51:57;;;;;;;5.80;5.40;;;13.00;99.90;;;;;;5071192;28;20190;-74
2023/10/21 00:54:25;;;;;;;6.70;6.00;;;13.10;99.90;;;;;;5071197;28;20170;-74
2023/10/21 00:56:51;;;;;;;6.10;5.47;;;13.10;99.90;;;;;;5071434;28;20256;-75
2023/10/21 00:59:17;;;;;;;6.77;5.57;;;13.10;99.90;;;;;;5071561;28;20261;-74
2023/10/21 01:01:46;;;;;;;6.03;5.53;;;13.10;99.90;;;;;;5070985;28;20684;-74
2023/10/21 01:04:13;;;;;;;6.87;5.70;;;13.20;99.90;;;;;;5071247;28;20182;-74
2023/10/21 01:06:39;;;;;;;5.90;5.50;;;13.20;99.90;;;;;;5071050;28;20542;-74
2023/10/21 01:09:05;;;;;;;6.20;5.60;;;13.20;99.90;;;;;;5069770;28;20201;-74
2023/10/21 01:11:30;;;;;;;6.33;5.73;;;13.20;99.90;;;;;;5070956;28;20198;-74
2023/10/21 01:13:56;;;;;;;6.07;5.57;;;13.20;99.90;;;;;;5071362;28;20223;-74
2023/10/21 01:16:22;;;;;;;6.70;6.07;;;13.20;99.90;;;;;;5071180;28;20170;-74
2023/10/21 01:18:48;;;;;;;5.77;5.33;;;13.20;99.90;;;;;;5071331;28;20178;-74
2023/10/21 01:21:14;;;;;;;7.07;6.40;;;13.20;99.90;;;;;;5070787;28;20311;-74
2023/10/21 01:23:40;;;;;;;5.97;5.47;;;13.20;99.90;;;;;;5070814;28;20627;-74
2023/10/21 01:26:06;;;;;;;7.47;6.20;;;13.20;99.90;;;;;;5070938;28;20162;-74
2023/10/21 01:28:32;;;;;;;7.17;6.47;;;13.20;99.90;;;;;;5070947;28;20576;-74
2023/10/21 01:30:58;;;;;;;7.70;6.63;;;13.20;99.90;;;;;;5070526;28;20209;-73
2023/10/21 01:33:24;;;;;;;7.07;6.47;;;13.20;99.90;;;;;;5071079;28;20181;-73
2023/10/21 01:35:50;;;;;;;6.47;5.97;;;13.20;99.90;;;;;;5070749;28;20545;-73
2023/10/21 01:38:15;;;;;;;7.23;6.53;;;13.20;99.90;;;;;;5070995;28;20228;-73
2023/10/21 01:40:41;;;;;;;7.90;6.57;;;13.20;99.90;;;;;;5070910;28;20189;-73
2023/10/21 01:43:07;;;;;;;9.57;7.37;;;13.20;99.90;;;;;;5075045;28;20185;-74
2023/10/21 01:45:37;;;;;;;7.60;6.13;;;13.20;99.90;;;;;;5075070;28;20182;-74
2023/10/21 01:48:03;;;;;;;10.33;6.30;;;13.20;99.90;;;;;;5074870;28;20178;-73
2023/10/21 01:50:29;;;;;;;7.73;6.93;;;13.30;99.90;;;;;;5074092;28;20288;-74
2023/10/21 01:52:55;;;;;;;18.40;6.97;;;13.30;99.90;;;;;;5074854;28;20330;-73
2023/10/21 01:55:21;;;;;;;7.90;7.13;;;13.20;99.90;;;;;;5074905;28;20174;-74
2023/10/21 01:57:46;;;;;;;6.50;5.90;;;13.20;99.90;;;;;;5074756;28;20261;-73
2023/10/21 02:00:18;;;;;;;12.13;6.13;;;13.30;99.90;;;;;;5074477;28;20185;-73
2023/10/21 02:02:51;;;;;;;7.13;5.97;;;13.30;99.90;;;;;;5074511;28;20577;-73
2023/10/21 02:05:18;;;;;;;6.07;5.57;;;13.30;99.90;;;;;;5074566;28;20252;-73
2023/10/21 02:07:43;;;;;;;6.53;5.93;;;13.30;99.90;;;;;;5074513;28;20275;-74
2023/10/21 02:10:09;;;;;;;9.07;6.27;;;13.30;99.90;;;;;;5074248;28;20675;-73
2023/10/21 02:12:35;;;;;;;8.57;6.93;;;13.30;99.90;;;;;;5074183;28;20202;-73
2023/10/21 02:15:01;;;;;;;6.77;6.17;;;13.30;99.90;;;;;;5074407;28;20647;-73
2023/10/21 02:17:27;;;;;;;10.40;6.90;;;13.30;99.90;;;;;;5074371;28;20602;-74
2023/10/21 02:19:56;;;;;;;7.57;6.70;;;13.30;99.90;;;;;;5074013;28;20186;-73
2023/10/21 02:22:26;;;;;;;12.07;7.10;;;13.30;99.90;;;;;;5074367;28;20186;-73
2023/10/21 02:24:53;;;;;;;8.07;7.20;;;13.30;99.90;;;;;;5074588;28;20635;-73
2023/10/21 02:27:19;;;;;;;11.70;7.43;;;13.30;99.90;;;;;;5074218;28;20174;-73
2023/10/21 02:29:44;;;;;;;12.30;8.03;;;13.30;99.90;;;;;;5074242;28;20748;-73
2023/10/21 02:32:10;;;;;;;9.17;8.30;;;13.30;99.90;;;;;;5074236;28;20399;-73
2023/10/21 02:34:36;;;;;;;14.20;8.40;;;13.30;99.90;;;;;;5074052;28;20174;-73
2023/10/21 02:37:01;;;;;;;9.90;8.33;;;13.30;99.90;;;;;;5074345;28;20198;-73
2023/10/21 02:39:27;;;;;;;11.30;8.10;;;13.30;99.90;;;;;;5074222;28;20524;-72
2023/10/21 02:41:53;;;;;;;9.30;7.90;;;13.30;99.90;;;;;;5073990;28;20205;-73
2023/10/21 02:44:19;;;;;;;10.07;7.57;;;13.30;99.90;;;;;;5074293;28;20235;-73
2023/10/21 02:46:45;;;;;;;9.83;7.40;;;13.30;99.90;;;;;;5074039;28;20201;-74
2023/10/21 02:49:10;;;;;;;8.10;7.30;;;13.30;99.90;;;;;;5073881;28;20201;-73
2023/10/21 02:51:36;;;;;;;13.57;7.10;;;13.30;99.90;;;;;;5073152;28;20229;-73
2023/10/21 02:54:02;;;;;;;11.43;7.63;;;13.40;99.90;;;;;;5073953;28;20181;-73
2023/10/21 02:56:27;;;;;;;7.87;6.73;;;13.40;99.90;;;;;;5073876;28;20167;-74
2023/10/21 02:58:53;;;;;;;6.37;5.70;;;13.30;99.90;;;;;;5073697;28;20643;-73
2023/10/21 03:01:20;;;;;;;6.40;5.80;;;13.40;99.90;;;;;;5073648;28;20269;-72
2023/10/21 03:03:48;;;;;;;6.57;5.97;;;13.40;99.90;;;;;;5074026;28;20701;-73
2023/10/21 03:06:15;;;;;;;6.63;6.03;;;13.40;99.90;;;;;;5073573;28;20184;-72
2023/10/21 03:08:42;;;;;;;6.13;5.53;;;13.40;99.90;;;;;;5073578;28;20173;-73
2023/10/21 03:11:08;;;;;;;6.50;5.63;;;13.40;99.90;;;;;;5073252;28;20213;-73
2023/10/21 03:13:36;;;;;;;5.23;4.73;;;13.50;99.90;;;;;;5073684;28;20215;-73
2023/10/21 03:16:13;;;;;;;5.67;5.10;;;13.50;99.90;;;;;;5073468;28;20662;-72
2023/10/21 03:18:40;;;;;;;9.50;5.00;;;13.50;99.90;;;;;;5073525;28;20188;-73
2023/10/21 03:21:07;;;;;;;5.20;4.73;;;13.40;99.90;;;;;;5073164;28;20196;-72
2023/10/21 03:23:33;;;;;;;7.53;5.30;;;13.50;99.90;;;;;;5073488;28;20188;-73
2023/10/21 03:26:01;;;;;;;5.70;5.20;;;13.40;99.90;;;;;;5073526;28;20182;-73
2023/10/21 03:28:27;;;;;;;5.00;4.60;;;13.40;99.90;;;;;;5073264;28;20173;-73
2023/10/21 03:31:01;;;;;;;5.20;4.70;;;13.50;99.90;;;;;;5052952;28;20233;-73
2023/10/21 03:33:27;;;;;;;6.97;4.93;;;13.50;99.90;;;;;;5065335;28;20265;-74
2023/10/21 03:35:54;;;;;;;5.67;5.20;;;13.50;99.90;;;;;;5073129;28;20170;-74
2023/10/21 03:38:21;;;;;;;5.97;5.37;;;13.50;99.90;;;;;;5073153;28;20198;-72
2023/10/21 03:41:02;;;;;;;6.07;4.67;;;13.50;99.90;;;;;;5072694;28;20644;-74
2023/10/21 03:43:27;;;;;;;6.10;5.13;;;13.50;99.90;;;;;;5073156;28;20182;-74
2023/10/21 03:45:54;;;;;;;5.90;5.30;;;13.50;99.90;;;;;;5073046;28;20178;-73
2023/10/21 03:48:21;;;;;;;5.43;5.03;;;13.50;99.90;;;;;;5072742;28;20213;-73
2023/10/21 03:50:47;;;;;;;8.03;5.13;;;13.50;99.90;;;;;;5072377;28;20209;-72
2023/10/21 03:53:14;;;;;;;5.30;4.80;;;13.60;99.90;;;;;;5072679;28;20182;-72
2023/10/21 03:55:41;;;;;;;5.30;4.80;;;13.60;99.90;;;;;;5073081;28;20171;-73
2023/10/21 03:58:07;;;;;;;6.30;4.80;;;13.60;99.90;;;;;;5073078;28;20255;-72
2023/10/21 04:00:33;;;;;;;5.27;4.80;;;13.60;99.90;;;;;;5072327;28;20209;-72
2023/10/21 04:02:58;;;;;;;5.47;5.07;;;13.70;99.90;;;;;;5072445;28;20341;-73
2023/10/21 04:05:24;;;;;;;5.43;4.93;;;13.70;99.90;;;;;;5072315;28;20597;-72
2023/10/21 04:07:50;;;;;;;4.70;4.40;;;13.70;99.90;;;;;;5072835;28;20682;-72
2023/10/21 04:10:15;;;;;;;5.13;4.70;;;13.70;99.90;;;;;;5072180;28;20288;-73
2023/10/21 04:12:42;;;;;;;4.73;4.33;;;13.70;99.90;;;;;;5072407;28;20978;-73
2023/10/21 04:15:08;;;;;;;5.30;4.40;;;13.70;99.90;;;;;;5072585;28;20163;-73
2023/10/21 04:17:34;;;;;;;5.27;4.17;;;13.70;99.90;;;;;;5072231;28;20174;-73
2023/10/21 04:20:00;;;;;;;4.87;4.10;;;13.70;99.90;;;;;;5072298;28;20225;-73
2023/10/21 04:22:25;;;;;;;4.43;4.03;;;13.70;99.90;;;;;;5072271;28;20230;-72
2023/10/21 04:24:51;;;;;;;4.20;3.90;;;13.70;99.90;;;;;;5072131;28;20189;-73
2023/10/21 04:27:16;;;;;;;6.03;4.47;;;13.70;99.90;;;;;;5072403;28;20202;-73
2023/10/21 04:29:42;;;;;;;4.03;3.60;;;13.70;99.90;;;;;;5071802;28;20213;-73
2023/10/21 04:32:08;;;;;;;4.60;3.90;;;13.70;99.90;;;;;;5072063;28;20197;-73
2023/10/21 04:34:33;;;;;;;5.00;3.73;;;13.70;99.90;;;;;;5072032;28;20166;-72
2023/10/21 04:36:59;;;;;;;5.13;3.50;;;13.70;99.90;;;;;;5072379;28;20584;-73
2023/10/21 04:39:24;;;;;;;4.13;3.70;;;13.60;99.90;;;;;;5071981;28;20182;-72
2023/10/21 04:41:50;;;;;;;4.20;3.90;;;13.60;99.90;;;;;;5071871;28;20534;-73
2023/10/21 04:44:16;;;;;;;4.60;4.30;;;13.60;99.90;;;;;;5072132;28;20189;-73
2023/10/21 04:46:42;;;;;;;4.20;3.80;;;13.50;99.90;;;;;;5071852;28;20170;-72
2023/10/21 04:49:07;;;;;;;4.07;3.77;;;13.40;99.90;;;;;;5072012;28;20178;-73
2023/10/21 04:51:33;;;;;;;4.33;3.77;;;13.30;99.90;;;;;;5071396;28;20209;-73
2023/10/21 04:53:59;;;;;;;4.13;3.70;;;13.20;99.90;;;;;;5072051;28;20202;-73
2023/10/21 04:56:26;;;;;;;4.43;4.13;;;13.10;99.90;;;;;;5071673;28;20174;-72
2023/10/21 04:58:51;;;;;;;5.93;3.83;;;13.00;99.90;;;;;;5072006;28;20174;-72
2023/10/21 05:01:17;;;;;;;5.07;4.00;;;12.90;99.90;;;;;;5071590;28;20251;-73
2023/10/21 05:03:43;;;;;;;4.93;4.53;;;12.90;99.90;;;;;;5071898;28;20221;-72
2023/10/21 05:06:09;;;;;;;4.93;4.53;;;12.80;99.90;;;;;;5071774;28;20253;-72
2023/10/21 05:08:35;;;;;;;6.93;4.77;;;12.70;99.90;;;;;;5071602;28;20268;-72
2023/10/21 05:11:00;;;;;;;5.30;4.90;;;12.60;99.90;;;;;;5071210;28;20734;-73
2023/10/21 05:13:26;;;;;;;5.90;5.30;;;12.70;99.90;;;;;;5071656;28;20181;-73
2023/10/21 05:15:51;;;;;;;8.50;5.30;;;12.60;99.90;;;;;;5071709;28;20174;-73
2023/10/21 05:18:17;;;;;;;4.80;4.40;;;12.60;99.90;;;;;;5071694;28;20281;-73
2023/10/21 05:20:43;;;;;;;5.07;4.73;;;12.60;99.90;;;;;;5071191;28;20189;-72
2023/10/21 05:23:08;;;;;;;6.00;5.17;;;12.60;99.90;;;;;;5071659;28;20213;-73
2023/10/21 05:25:34;;;;;;;5.40;4.90;;;12.60;99.90;;;;;;5071270;28;20181;-73
2023/10/21 05:28:00;;;;;;;5.87;5.40;;;12.70;99.90;;;;;;5071741;28;20178;-73
2023/10/21 05:30:25;;;;;;;5.90;5.50;;;12.80;99.90;;;;;;5071060;28;20205;-72
2023/10/21 05:32:51;;;;;;;6.17;5.43;;;12.90;99.90;;;;;;5071263;28;20205;-73
2023/10/21 05:35:17;;;;;;;5.43;5.03;;;12.90;99.90;;;;;;5071643;28;20252;-72
2023/10/21 05:37:43;;;;;;;5.33;4.93;;;12.90;99.90;;;;;;5071345;28;20181;-73
2023/10/21 05:40:09;;;;;;;5.53;5.03;;;12.90;99.90;;;;;;5071228;28;20177;-73
2023/10/21 05:42:35;;;;;;;5.80;5.30;;;13.00;99.90;;;;;;5071191;28;20271;-73
2023/10/21 05:45:00;;;;;;;5.23;4.80;;;13.00;99.90;;;;;;5071472;28;20210;-72
2023/10/21 05:47:26;;;;;;;5.70;5.30;;;13.00;99.90;;;;;;5071341;28;20647;-73
2023/10/21 05:49:52;;;;;;;6.67;5.53;;;13.00;99.90;;;;;;5071157;28;20198;-74
2023/10/21 05:52:18;;;;;;;6.90;5.50;;;13.00;99.90;;;;;;5070979;28;20193;-73
2023/10/21 05:54:44;;;;;;;5.93;5.40;;;13.00;99.90;;;;;;5071191;28;20589;-73
2023/10/21 05:57:10;;;;;;;7.60;5.87;;;13.00;99.90;;;;;;5071443;28;20205;-74
2023/10/21 05:59:35;;;;;;;6.17;5.67;;;13.10;99.90;;;;;;5071096;28;20174;-73
2023/10/21 06:02:01;;;;;;;8.40;5.90;;;13.10;99.90;;;;;;5070967;28;20563;-74
2023/10/21 06:04:27;;;;;;;6.63;6.00;;;13.10;99.90;;;;;;5070987;28;20174;-73
2023/10/21 06:06:55;;;;;;;8.87;5.63;;;13.10;99.90;;;;;;5069228;28;20635;-73
2023/10/21 06:09:23;;;;;;;7.80;6.37;;;13.20;99.90;;;;;;5071096;28;20202;-73
2023/10/21 06:11:50;;;;;;;7.20;6.40;;;13.20;99.90;;;;;;5070479;28;20243;-73
2023/10/21 06:14:17;;;;;;;8.97;7.67;;;13.20;99.90;;;;;;5070846;28;20705;-73
2023/10/21 06:16:43;;;;;;;8.43;7.57;;;13.20;99.90;;;;;;5070621;28;20178;-73
2023/10/21 06:19:09;;;;;;;9.43;8.00;;;13.20;99.90;;;;;;5070774;28;20257;-74
2023/10/21 06:21:35;;;;;;;9.03;7.73;;;13.20;99.90;;;;;;5069929;28;20202;-73
2023/10/21 06:24:03;;;;;;;9.73;8.73;;;13.20;99.90;;;;;;5070828;28;20184;-73
2023/10/21 06:26:31;;;;;;;9.03;8.23;;;13.20;99.90;;;;;;5070543;28;20185;-74
2023/10/21 06:28:57;;;;;;;8.13;7.33;;;13.20;99.90;;;;;;5073960;28;20169;-73
2023/10/21 06:31:23;;;;;;;8.23;7.30;;;13.20;99.90;;;;;;5073929;28;20190;-73
2023/10/21 06:33:49;;;;;;;6.97;6.40;;;13.20;99.90;;;;;;5074189;28;20534;-74
2023/10/21 06:36:15;;;;;;;7.17;6.57;;;13.20;99.90;;;;;;5073958;28;20543;-73
2023/10/21 06:38:41;;;;;;;7.43;6.53;;;13.20;99.90;;;;;;5074440;28;20273;-73
2023/10/21 06:41:06;;;;;;;7.30;6.63;;;13.20;99.90;;;;;;5073736;28;20666;-73
2023/10/21 06:43:32;;;;;;;7.33;6.63;;;13.20;99.90;;;;;;5073861;28;20162;-74
2023/10/21 06:45:59;;;;;;;7.50;6.83;;;13.30;99.90;;;;;;5073494;28;20595;-73
2023/10/21 06:48:25;;;;;;;8.03;7.20;;;13.30;99.90;;;;;;5073711;28;20167;-73
2023/10/21 06:50:51;;;;;;;8.10;7.30;;;13.30;99.90;;;;;;5073192;28;20566;-73
2023/10/21 06:53:16;;;;;;;8.20;6.13;;;13.30;99.90;;;;;;5072748;28;20174;-74
2023/10/21 06:55:44;;;;;;;6.73;6.13;;;13.40;99.90;;;;;;5071071;28;20251;-74
2023/10/21 06:58:11;;;;;;;7.60;6.47;;;13.40;99.90;;;;;;5073613;28;20367;-73
2023/10/21 07:00:37;;;;;;;6.90;6.00;;;13.40;99.90;;;;;;5073008;28;20174;-74
2023/10/21 07:03:04;;;;;;;6.77;5.30;;;13.40;99.90;;;;;;5073352;28;20180;-74
2023/10/21 07:05:29;;;;;;;5.13;4.70;;;13.40;99.90;;;;;;5073143;28;20236;-73
2023/10/21 07:07:55;;;;;;;4.40;4.10;;;13.50;99.90;;;;;;5072976;28;20643;-73
2023/10/21 07:10:21;;;;;;;3.80;3.50;;;13.60;99.90;;;;;;5072558;28;20206;-74
2023/10/21 07:12:46;;;;;;;3.33;3.13;;;13.80;99.90;;;;;;5072695;28;20280;-73
2023/10/21 07:15:12;;;;;;;3.10;2.90;;;14.00;99.90;;;;;;5073285;28;20249;-73
2023/10/21 07:17:37;;;;;;;3.20;3.00;;;14.20;99.90;;;;;;5073253;28;20316;-73
2023/10/21 07:20:05;;;;;;;2.77;2.67;;;14.40;99.90;;;;;;5072974;28;20182;-74
2023/10/21 07:22:31;;;;;;;3.27;2.97;;;14.60;99.90;;;;;;5072777;28;20193;-73
2023/10/21 07:24:57;;;;;;;2.60;2.50;;;14.80;99.90;;;;;;5073216;28;20261;-74
2023/10/21 07:27:24;;;;;;;3.50;2.63;;;15.10;99.90;;;;;;5072095;28;20567;-75
2023/10/21 07:29:50;;;;;;;2.80;2.70;;;15.40;99.90;;;;;;5072590;28;20202;-74
2023/10/21 07:32:15;;;;;;;2.40;2.30;;;15.70;99.90;;;;;;5072618;28;20190;-74
2023/10/21 07:34:41;;;;;;;2.40;2.20;;;16.10;99.90;;;;;;5072518;28;20249;-73
2023/10/21 07:37:07;;;;;;;2.30;2.20;;;16.40;99.90;;;;;;5072701;28;20170;-74
2023/10/21 07:39:33;;;;;;;2.10;2.00;;;16.70;99.90;;;;;;5072911;28;20181;-74
2023/10/21 07:41:58;;;;;;;2.07;1.97;;;17.00;99.90;;;;;;5072040;28;20194;-74
2023/10/21 07:44:24;;;;;;;1.80;1.70;;;17.10;99.90;;;;;;5072836;28;20178;-74
2023/10/21 07:46:50;;;;;;;1.97;1.87;;;17.30;99.90;;;;;;5072625;28;20274;-75
2023/10/21 07:49:17;;;;;;;2.23;2.00;;;17.40;99.90;;;;;;5072423;28;20179;-74
2023/10/21 07:51:42;;;;;;;2.00;1.90;;;17.40;99.90;;;;;;5072012;28;20197;-74
2023/10/21 07:54:08;;;;;;;1.80;1.70;;;17.40;99.90;;;;;;5072803;28;20166;-75
2023/10/21 07:56:34;;;;;;;3.73;2.13;;;17.40;99.90;;;;;;5072715;28;20205;-74
2023/10/21 07:58:59;;;;;;;2.00;1.90;;;17.50;99.90;;;;;;5072397;28;20167;-74
2023/10/21 08:01:25;;;;;;;2.20;2.00;;;17.50;99.90;;;;;;5072165;28;20186;-74
2023/10/21 08:03:53;;;;;;;2.30;2.10;;;17.60;99.90;;;;;;5072271;28;20178;-74
2023/10/21 08:06:18;;;;;;;1.70;1.60;;;17.70;99.90;;;;;;5072326;28;20249;-74
2023/10/21 08:08:44;;;;;;;2.00;1.90;;;17.80;99.90;;;;;;5071684;28;20781;-74
2023/10/21 08:11:10;;;;;;;2.10;1.90;;;17.90;99.90;;;;;;5072018;28;20210;-74
2023/10/21 08:13:35;;;;;;;2.10;2.00;;;18.00;99.90;;;;;;5071979;28;20173;-74
2023/10/21 08:16:01;;;;;;;1.90;1.80;;;18.00;99.90;;;;;;5072119;28;20166;-74
2023/10/21 08:18:27;;;;;;;1.90;1.80;;;18.00;99.90;;;;;;5071558;28;20702;-74
2023/10/21 08:20:52;;;;;;;2.00;1.90;;;17.90;99.90;;;;;;5071576;28;20180;-74
2023/10/21 08:23:18;;;;;;;2.10;1.90;;;18.00;99.90;;;;;;5072027;28;20178;-74
2023/10/21 08:25:43;;;;;;;2.00;1.90;;;18.10;99.90;;;;;;5071667;28;20189;-75
2023/10/21 08:28:10;;;;;;;2.23;2.13;;;17.80;99.90;;;;;;5070457;28;20182;-74
2023/10/21 08:30:38;;;;;;;2.63;2.10;;;17.60;99.90;;;;;;5071096;28;20274;-74
2023/10/21 08:33:07;;;;;;;2.37;2.27;;;17.40;99.90;;;;;;5071597;28;20593;-73
2023/10/21 08:35:34;;;;;;;2.43;2.17;;;16.90;99.90;;;;;;5071525;28;20529;-72
2023/10/21 08:38:00;;;;;;;2.60;2.40;;;16.60;99.90;;;;;;5071365;28;20200;-74
2023/10/21 08:40:25;;;;;;;2.37;2.10;;;16.40;99.90;;;;;;5071423;28;20175;-73
2023/10/21 08:42:51;;;;;;;2.47;2.37;;;16.40;99.90;;;;;;5071072;28;20202;-74
2023/10/21 08:45:19;;;;;;;2.50;2.30;;;16.30;99.90;;;;;;5071721;28;20166;-73
2023/10/21 08:47:46;;;;;;;2.07;1.97;;;16.30;99.90;;;;;;5067106;28;20171;-75
2023/10/21 08:50:15;;;;;;;2.47;2.30;;;16.20;99.90;;;;;;5070694;28;20189;-74
2023/10/21 08:52:42;;;;;;;2.27;2.17;;;16.00;99.90;;;;;;5071143;28;20198;-74
2023/10/21 08:55:09;;;;;;;3.23;2.30;;;15.90;99.90;;;;;;5071268;28;20194;-74
2023/10/21 08:57:36;;;;;;;2.13;2.03;;;15.90;99.90;;;;;;5070984;28;20177;-73
2023/10/21 09:00:04;;;;;;;2.20;2.10;;;15.90;99.90;;;;;;5070819;28;20176;-73
2023/10/21 09:02:30;;;;;;;2.10;2.00;;;16.00;99.90;;;;;;5070463;28;20198;-74
2023/10/21 09:04:56;;;;;;;3.00;2.17;;;16.40;99.90;;;;;;5071115;28;20673;-73
2023/10/21 09:07:22;;;;;;;2.20;2.00;;;17.10;99.90;;;;;;5071261;28;20178;-74
2023/10/21 09:09:48;;;;;;;1.80;1.70;;;17.80;99.90;;;;;;5071081;28;20194;-74
2023/10/21 09:12:14;;;;;;;2.20;1.70;;;18.70;99.90;;;;;;5070942;28;20193;-74
2023/10/21 09:14:55;;;;;;;2.27;1.70;;;19.30;99.90;;;;;;5071113;28;20174;-74
2023/10/21 09:17:33;;;;;;;2.23;1.90;;;19.50;99.90;;;;;;5071000;28;20162;-74
2023/10/21 09:19:59;;;;;;;2.60;1.83;;;19.90;99.90;;;;;;5070558;28;20177;-74
2023/10/21 09:22:27;;;;;;;2.87;1.70;;;20.10;99.90;;;;;;5070854;28;20196;-74
2023/10/21 09:25:15;;;;;;;2.17;1.97;;;20.10;99.90;;;;;;5070946;28;20730;-74
2023/10/21 09:27:42;;;;;;;2.55;1.88;;;20.10;99.90;;;;;;5070943;28;20259;-73
2023/10/21 09:30:17;;;;;;;2.17;1.70;;;19.90;99.90;;;;;;5070594;28;20229;-73
2023/10/21 09:32:43;;;;;;;1.97;1.83;;;20.00;99.90;;;;;;5070621;28;20203;-74
2023/10/21 09:35:17;;;;;;;2.10;2.00;;;20.00;99.90;;;;;;5070912;28;20162;-73
2023/10/21 09:37:43;;;;;;;2.10;1.90;;;19.90;99.90;;;;;;5071124;28;20525;-74
2023/10/21 09:40:09;;;;;;;1.90;1.80;;;19.80;99.90;;;;;;5070605;28;20379;-73
2023/10/21 09:42:42;;;;;;;2.43;1.80;;;19.60;99.90;;;;;;5070804;28;20190;-74
2023/10/21 09:45:10;;;;;;;2.17;1.97;;;19.00;99.90;;;;;;5070802;28;20205;-74
2023/10/21 09:47:39;;;;;;;2.17;1.97;;;18.70;99.90;;;;;;5070746;28;20198;-73
2023/10/21 09:50:09;;;;;;;2.87;2.67;;;18.30;99.90;;;;;;5070573;28;20745;-74
2023/10/21 09:53:10;;;;;;;2.83;2.40;;;18.00;99.90;;;;;;5054527;28;20222;-73
2023/10/21 09:55:36;;;;;;;3.20;2.90;;;17.60;99.90;;;;;;5049472;28;20265;-73
2023/10/21 09:58:04;;;;;;;3.97;2.03;;;17.20;99.90;;;;;;5050792;28;20655;-72
2023/10/21 10:00:30;;;;;;;4.30;2.20;;;16.80;99.90;;;;;;5066403;28;20177;-73
2023/10/21 10:02:56;;;;;;;2.57;2.30;;;17.00;99.90;;;;;;5073055;28;20202;-73
2023/10/21 10:05:22;;;;;;;2.23;2.00;;;17.40;99.90;;;;;;5074522;28;20170;-71
2023/10/21 10:07:49;;;;;;;2.20;2.00;;;18.00;99.90;;;;;;5074470;28;20193;-73
2023/10/21 10:10:20;;;;;;;4.37;1.90;;;18.30;99.90;;;;;;5074201;28;20202;-73
2023/10/21 10:13:03;;;;;;;2.30;2.07;;;18.70;99.90;;;;;;5072953;28;20312;-72
2023/10/21 10:15:33;;;;;;;2.90;2.07;;;19.00;99.90;;;;;;5073931;28;20220;-72
2023/10/21 10:18:03;;;;;;;3.30;1.73;;;19.30;99.90;;;;;;5074287;28;20172;-74
2023/10/21 10:20:29;;;;;;;2.33;1.93;;;19.40;99.90;;;;;;5073740;28;20202;-72
2023/10/21 10:22:58;;;;;;;3.73;1.80;;;19.50;99.90;;;;;;5074110;28;20189;-71
2023/10/21 10:25:40;;;;;;;3.87;1.87;;;19.40;99.90;;;;;;5074199;28;20295;-71
2023/10/21 10:28:16;;;;;;;1.73;1.63;;;19.40;99.90;;;;;;5073808;28;20201;-72
2023/10/21 10:30:46;;;;;;;1.80;1.70;;;19.40;99.90;;;;;;5073248;28;20206;-72
2023/10/21 10:33:16;;;;;;;4.20;1.93;;;19.40;99.90;;;;;;5074010;28;20178;-73
2023/10/21 10:35:51;;;;;;;2.03;1.80;;;19.30;99.90;;;;;;5071730;28;20181;-71
2023/10/21 10:38:17;;;;;;;1.80;1.70;;;19.30;99.90;;;;;;5074138;28;20169;-71
2023/10/21 10:40:44;;;;;;;2.00;1.80;;;18.80;99.90;;;;;;5072956;28;20176;-72
2023/10/21 10:43:15;;;;;;;2.93;2.00;;;18.60;99.90;;;;;;5073590;28;20202;-71
2023/10/21 10:45:41;;;;;;;2.93;2.40;;;18.90;99.90;;;;;;5073252;28;20268;-72
2023/10/21 10:48:07;;;;;;;2.57;1.90;;;18.90;99.90;;;;;;5073783;28;20261;-72
2023/10/21 10:50:37;;;;;;;3.87;2.00;;;19.00;99.90;;;;;;5072560;28;20198;-73
2023/10/21 10:53:22;;;;;;;3.20;2.00;;;19.20;99.90;;;;;;5072907;28;20182;-72
2023/10/21 10:55:49;;;;;;;3.20;1.80;;;19.30;99.90;;;;;;5073635;28;20212;-72
2023/10/21 10:58:20;;;;;;;3.43;1.90;;;19.50;99.90;;;;;;5073521;28;20245;-72
2023/10/21 11:00:51;;;;;;;3.40;1.90;;;19.50;99.90;;;;;;5072461;28;20206;-72
2023/10/21 11:03:27;;;;;;;2.90;2.17;;;19.60;99.90;;;;;;5064625;28;20265;-72
2023/10/21 11:05:55;;;;;;;2.10;1.93;;;19.60;99.90;;;;;;5053737;28;20561;-72
2023/10/21 11:08:21;;;;;;;4.40;1.97;;;19.60;99.90;;;;;;5053448;28;20179;-73
2023/10/21 11:10:47;;;;;;;3.57;1.90;;;19.60;99.90;;;;;;5053135;28;20415;-73
2023/10/21 11:13:13;;;;;;;3.17;1.97;;;19.50;99.90;;;;;;5052979;28;20177;-72
2023/10/21 11:15:44;;;;;;;3.63;1.70;;;19.40;99.90;;;;;;5053137;28;20175;-71
2023/10/21 11:18:11;;;;;;;2.63;2.10;;;19.20;99.90;;;;;;5052904;28;20358;-72
2023/10/21 11:20:48;;;;;;;3.47;1.90;;;19.20;99.90;;;;;;5052811;28;20573;-72
2023/10/21 11:23:16;;;;;;;2.10;1.90;;;19.30;99.90;;;;;;5058941;28;20185;-70
2023/10/21 11:25:45;;;;;;;4.17;2.10;;;19.20;99.90;;;;;;5073220;28;20184;-71
2023/10/21 11:28:13;;;;;;;5.47;2.27;;;19.20;99.90;;;;;;5072893;28;20247;-71
2023/10/21 11:30:40;;;;;;;3.77;2.23;;;19.00;99.90;;;;;;5072209;28;20206;-71
2023/10/21 11:33:10;;;;;;;3.27;2.30;;;18.90;99.90;;;;;;5072940;28;20166;-72
2023/10/21 11:35:40;;;;;;;4.30;2.30;;;18.90;99.90;;;;;;5073534;28;20678;-72
2023/10/21 11:38:06;;;;;;;4.27;2.00;;;18.90;99.90;;;;;;5072997;28;20212;-71
2023/10/21 11:40:36;;;;;;;4.07;2.10;;;18.90;99.90;;;;;;5072443;28;20647;-72
2023/10/21 11:43:06;;;;;;;8.10;2.17;;;18.80;99.90;;;;;;5072449;28;20202;-71
2023/10/21 11:45:32;;;;;;;5.23;2.53;;;18.60;99.90;;;;;;5072820;28;20227;-73
2023/10/21 11:48:01;;;;;;;4.17;2.10;;;18.60;99.90;;;;;;5072896;28;20174;-73
2023/10/21 11:50:34;;;;;;;2.30;2.10;;;18.60;99.90;;;;;;5072407;28;20690;-72
2023/10/21 11:53:04;;;;;;;5.37;3.00;;;18.70;99.90;;;;;;5072338;28;20204;-73
2023/10/21 12:17:50;;;;;;;7.23;2.37;;;18.80;99.90;;;;;;5072540;28;20176;-72
2023/10/21 12:20:29;;;;;;;3.53;2.10;;;18.70;99.90;;;;;;5071738;28;20272;-73
2023/10/21 12:31:37;;;;;;;3.87;2.23;;;19.00;99.90;;;;;;5071201;28;20744;-72
2023/10/21 12:39:18;;;;;;;4.80;2.53;;;18.80;99.90;;;;;;5071944;28;20197;-72
2023/10/21 12:41:39;;;;;;;5.77;2.63;;;18.60;99.90;;;;;;5071595;28;20190;-72
2023/10/21 12:44:12;;;;;;;4.27;3.90;;;18.50;99.90;;;;;;5071500;28;20266;-71
2023/10/21 12:46:40;;;;;;;4.80;2.93;;;18.50;99.90;;;;;;5071536;28;20170;-72
2023/10/21 12:49:17;;;;;;;5.13;2.47;;;18.50;99.90;;;;;;5071523;28;20184;-73
2023/10/21 12:51:42;;;;;;;4.50;2.50;;;18.50;99.90;;;;;;5071396;28;20281;-73
2023/10/21 12:54:11;;;;;;;4.80;2.30;;;18.50;99.90;;;;;;5071576;28;20249;-73
2023/10/21 12:56:40;;;;;;;5.33;2.73;;;18.50;99.90;;;;;;5071455;28;20275;-71
2023/10/21 12:59:06;;;;;;;5.80;2.53;;;18.60;99.90;;;;;;5071187;28;20666;-73
2023/10/21 13:01:34;;;;;;;8.17;2.30;;;18.70;99.90;;;;;;5071536;28;20197;-73
2023/10/21 13:04:00;;;;;;;4.67;2.20;;;18.80;99.90;;;;;;5071418;28;20170;-75
2023/10/21 13:06:25;;;;;;;4.77;2.40;;;18.80;99.90;;;;;;5071251;28;20166;-72
2023/10/21 13:08:51;;;;;;;6.60;2.57;;;18.70;99.90;;;;;;5069075;28;20181;-72
2023/10/21 13:11:17;;;;;;;3.97;2.30;;;18.70;99.90;;;;;;5070787;28;20713;-72
2023/10/21 13:13:44;;;;;;;4.87;2.10;;;18.70;99.90;;;;;;5070784;28;20639;-73
2023/10/21 13:16:10;;;;;;;4.17;2.40;;;18.80;99.90;;;;;;5071113;28;20162;-73
2023/10/21 13:18:36;;;;;;;5.20;2.30;;;18.90;99.90;;;;;;5070385;28;20173;-75
2023/10/21 13:21:02;;;;;;;2.13;2.00;;;18.90;99.90;;;;;;5070499;28;20198;-73